KIKG

Kleberg County Airport

Kingsville, Texas, USA
METAR KIKG 172215Z AUTO 11013KT 3SM HZ CLR 36/24 A2998 RMK AO2 T03570242
Observed Flight Rules
Aug-17 @ 22:15 UTC (21 minutes ago) Marginal Visual Flight Rules
Wind Visibility Clouds Conditions
110° at 13 knots 3 miles
  • Clear skies
  • Haze
Temperatures Readings
Current 36°C / 97°F
Dewpoint 24°C / 75°F
Humidity 50%
Altimeter 29.98" Hg
Pressure 1015 hPa
Elevation 40
METAR KIKG 172215Z AUTO 11013KT 3SM HZ CLR 36/24 A2998 RMK AO2 T03570242
Observed Flight Rules
Aug-17 @ 22:15 UTC
(21 minutes ago)
MVFR
Wind Visibility
110° at 13 knots 3 miles
Clouds
  • Clear skies
Conditions
  • Haze
Temperature Dewpoint
36°C / 97°F 24°C / 75°F
Humidity Altimeter Pressure
50% 29.98" Hg 1015 hPa